sensor_id;sensor_type;location;lat;lon;timestamp;P1;durP1;ratioP1;P2;durP2;ratioP2
12800;SDS011;6464;42.494;27.470;2023-04-28T00:00:53;5.90;;;5.80;;
12800;SDS011;6464;42.494;27.470;2023-04-28T00:03:20;6.20;;;6.00;;
12800;SDS011;6464;42.494;27.470;2023-04-28T00:05:47;6.07;;;5.97;;
12800;SDS011;6464;42.494;27.470;2023-04-28T00:08:14;6.00;;;5.90;;
12800;SDS011;6464;42.494;27.470;2023-04-28T00:10:42;6.20;;;6.00;;
12800;SDS011;6464;42.494;27.470;2023-04-28T00:13:09;6.60;;;6.40;;
12800;SDS011;6464;42.494;27.470;2023-04-28T00:15:37;6.00;;;5.90;;
12800;SDS011;6464;42.494;27.470;2023-04-28T00:18:04;6.43;;;6.23;;
12800;SDS011;6464;42.494;27.470;2023-04-28T00:20:32;6.50;;;6.30;;
12800;SDS011;6464;42.494;27.470;2023-04-28T00:22:59;6.10;;;6.00;;
12800;SDS011;6464;42.494;27.470;2023-04-28T00:25:26;6.10;;;6.00;;
12800;SDS011;6464;42.494;27.470;2023-04-28T00:27:53;6.50;;;6.30;;
12800;SDS011;6464;42.494;27.470;2023-04-28T00:30:20;6.43;;;6.23;;
12800;SDS011;6464;42.494;27.470;2023-04-28T00:32:50;6.40;;;6.20;;
12800;SDS011;6464;42.494;27.470;2023-04-28T00:35:18;6.40;;;6.20;;
12800;SDS011;6464;42.494;27.470;2023-04-28T00:37:45;6.60;;;6.40;;
12800;SDS011;6464;42.494;27.470;2023-04-28T00:40:12;6.23;;;6.03;;
12800;SDS011;6464;42.494;27.470;2023-04-28T00:42:40;6.30;;;6.10;;
12800;SDS011;6464;42.494;27.470;2023-04-28T00:45:07;6.87;;;6.67;;
12800;SDS011;6464;42.494;27.470;2023-04-28T00:47:35;6.40;;;6.20;;
12800;SDS011;6464;42.494;27.470;2023-04-28T00:50:05;6.60;;;6.40;;
12800;SDS011;6464;42.494;27.470;2023-04-28T00:52:34;6.30;;;6.10;;
12800;SDS011;6464;42.494;27.470;2023-04-28T00:55:02;6.50;;;6.30;;
12800;SDS011;6464;42.494;27.470;2023-04-28T00:57:31;6.40;;;6.20;;
12800;SDS011;6464;42.494;27.470;2023-04-28T00:59:58;6.53;;;6.33;;
12800;SDS011;6464;42.494;27.470;2023-04-28T04:02:35;7.00;;;6.80;;
12800;SDS011;6464;42.494;27.470;2023-04-28T04:05:02;6.83;;;6.63;;
12800;SDS011;6464;42.494;27.470;2023-04-28T04:07:29;6.83;;;6.63;;
12800;SDS011;6464;42.494;27.470;2023-04-28T04:09:56;7.20;;;7.00;;
12800;SDS011;6464;42.494;27.470;2023-04-28T04:12:23;6.60;;;6.40;;
12800;SDS011;6464;42.494;27.470;2023-04-28T04:14:51;6.67;;;6.47;;
12800;SDS011;6464;42.494;27.470;2023-04-28T04:17:18;6.97;;;6.77;;
12800;SDS011;6464;42.494;27.470;2023-04-28T04:19:46;6.83;;;6.63;;
12800;SDS011;6464;42.494;27.470;2023-04-28T04:22:14;7.37;;;7.17;;
12800;SDS011;6464;42.494;27.470;2023-04-28T04:24:41;7.10;;;6.90;;
12800;SDS011;6464;42.494;27.470;2023-04-28T04:27:11;7.07;;;6.87;;
12800;SDS011;6464;42.494;27.470;2023-04-28T04:29:41;7.10;;;6.90;;
12800;SDS011;6464;42.494;27.470;2023-04-28T04:32:08;6.80;;;6.60;;
12800;SDS011;6464;42.494;27.470;2023-04-28T04:34:37;6.90;;;6.70;;
12800;SDS011;6464;42.494;27.470;2023-04-28T04:37:05;7.03;;;6.83;;
12800;SDS011;6464;42.494;27.470;2023-04-28T04:39:33;7.03;;;6.83;;
12800;SDS011;6464;42.494;27.470;2023-04-28T04:42:00;7.13;;;6.93;;
12800;SDS011;6464;42.494;27.470;2023-04-28T04:44:28;7.30;;;7.10;;
12800;SDS011;6464;42.494;27.470;2023-04-28T04:46:55;6.80;;;6.60;;
12800;SDS011;6464;42.494;27.470;2023-04-28T04:49:22;7.20;;;7.00;;
12800;SDS011;6464;42.494;27.470;2023-04-28T04:51:49;7.30;;;7.10;;
12800;SDS011;6464;42.494;27.470;2023-04-28T04:54:18;7.10;;;6.90;;
12800;SDS011;6464;42.494;27.470;2023-04-28T04:56:45;7.47;;;7.27;;
12800;SDS011;6464;42.494;27.470;2023-04-28T04:59:12;7.70;;;7.50;;
12800;SDS011;6464;42.494;27.470;2023-04-28T05:01:39;7.40;;;7.20;;
12800;SDS011;6464;42.494;27.470;2023-04-28T05:04:07;7.40;;;7.20;;
12800;SDS011;6464;42.494;27.470;2023-04-28T05:06:34;7.50;;;7.30;;
12800;SDS011;6464;42.494;27.470;2023-04-28T05:09:01;7.30;;;7.10;;
12800;SDS011;6464;42.494;27.470;2023-04-28T05:11:29;7.20;;;7.00;;
12800;SDS011;6464;42.494;27.470;2023-04-28T05:13:57;7.40;;;7.20;;
12800;SDS011;6464;42.494;27.470;2023-04-28T05:16:24;7.40;;;7.20;;
12800;SDS011;6464;42.494;27.470;2023-04-28T05:18:51;7.50;;;7.30;;
12800;SDS011;6464;42.494;27.470;2023-04-28T05:21:18;7.40;;;7.20;;
12800;SDS011;6464;42.494;27.470;2023-04-28T05:23:46;7.30;;;7.10;;
12800;SDS011;6464;42.494;27.470;2023-04-28T05:26:13;7.90;;;7.70;;
12800;SDS011;6464;42.494;27.470;2023-04-28T05:28:42;7.97;;;7.77;;
12800;SDS011;6464;42.494;27.470;2023-04-28T05:31:09;7.43;;;7.23;;
12800;SDS011;6464;42.494;27.470;2023-04-28T05:33:36;7.13;;;6.93;;
12800;SDS011;6464;42.494;27.470;2023-04-28T05:36:04;7.50;;;7.30;;
12800;SDS011;6464;42.494;27.470;2023-04-28T05:38:31;7.27;;;7.07;;
12800;SDS011;6464;42.494;27.470;2023-04-28T05:40:59;7.40;;;7.20;;
12800;SDS011;6464;42.494;27.470;2023-04-28T05:43:26;7.13;;;6.93;;
12800;SDS011;6464;42.494;27.470;2023-04-28T05:45:55;7.50;;;7.30;;
12800;SDS011;6464;42.494;27.470;2023-04-28T05:48:22;7.30;;;7.10;;
12800;SDS011;6464;42.494;27.470;2023-04-28T05:50:50;7.57;;;7.37;;
12800;SDS011;6464;42.494;27.470;2023-04-28T05:53:17;7.80;;;7.60;;
12800;SDS011;6464;42.494;27.470;2023-04-28T05:55:44;7.43;;;7.23;;
12800;SDS011;6464;42.494;27.470;2023-04-28T05:58:11;7.73;;;7.53;;
12800;SDS011;6464;42.494;27.470;2023-04-28T06:00:39;7.90;;;7.70;;
12800;SDS011;6464;42.494;27.470;2023-04-28T06:03:07;7.70;;;7.50;;
12800;SDS011;6464;42.494;27.470;2023-04-28T06:05:35;7.60;;;7.40;;
12800;SDS011;6464;42.494;27.470;2023-04-28T06:08:02;7.53;;;7.33;;
12800;SDS011;6464;42.494;27.470;2023-04-28T06:10:30;8.10;;;7.90;;
12800;SDS011;6464;42.494;27.470;2023-04-28T06:12:57;7.63;;;7.43;;
12800;SDS011;6464;42.494;27.470;2023-04-28T06:15:29;7.70;;;7.50;;
12800;SDS011;6464;42.494;27.470;2023-04-28T06:17:56;7.80;;;7.60;;
12800;SDS011;6464;42.494;27.470;2023-04-28T06:20:26;7.80;;;7.60;;
12800;SDS011;6464;42.494;27.470;2023-04-28T06:22:54;7.57;;;7.37;;
12800;SDS011;6464;42.494;27.470;2023-04-28T06:25:21;7.67;;;7.47;;
12800;SDS011;6464;42.494;27.470;2023-04-28T06:27:48;7.47;;;7.27;;
12800;SDS011;6464;42.494;27.470;2023-04-28T06:30:16;7.77;;;7.57;;
12800;SDS011;6464;42.494;27.470;2023-04-28T06:32:44;7.43;;;7.23;;
12800;SDS011;6464;42.494;27.470;2023-04-28T06:35:12;7.40;;;7.20;;
12800;SDS011;6464;42.494;27.470;2023-04-28T06:37:41;7.50;;;7.30;;
12800;SDS011;6464;42.494;27.470;2023-04-28T06:40:19;7.60;;;7.40;;
12800;SDS011;6464;42.494;27.470;2023-04-28T06:42:46;7.40;;;7.20;;
12800;SDS011;6464;42.494;27.470;2023-04-28T06:45:14;7.27;;;7.07;;
12800;SDS011;6464;42.494;27.470;2023-04-28T06:47:41;7.73;;;7.53;;
12800;SDS011;6464;42.494;27.470;2023-04-28T06:50:08;7.70;;;7.50;;
12800;SDS011;6464;42.494;27.470;2023-04-28T06:52:36;7.13;;;6.93;;
12800;SDS011;6464;42.494;27.470;2023-04-28T06:55:06;7.90;;;7.70;;
12800;SDS011;6464;42.494;27.470;2023-04-28T06:57:36;7.60;;;7.40;;
12800;SDS011;6464;42.494;27.470;2023-04-28T07:00:07;7.40;;;7.20;;
12800;SDS011;6464;42.494;27.470;2023-04-28T07:02:35;7.30;;;7.10;;
12800;SDS011;6464;42.494;27.470;2023-04-28T07:05:03;7.60;;;7.40;;
12800;SDS011;6464;42.494;27.470;2023-04-28T07:07:31;8.40;;;8.10;;
12800;SDS011;6464;42.494;27.470;2023-04-28T07:10:00;8.97;;;8.67;;
12800;SDS011;6464;42.494;27.470;2023-04-28T07:12:29;7.50;;;7.30;;
12800;SDS011;6464;42.494;27.470;2023-04-28T07:14:58;7.75;;;7.55;;
12800;SDS011;6464;42.494;27.470;2023-04-28T07:17:25;7.27;;;7.07;;
12800;SDS011;6464;42.494;27.470;2023-04-28T07:19:53;8.77;;;8.47;;
12800;SDS011;6464;42.494;27.470;2023-04-28T07:22:20;8.50;;;8.20;;
12800;SDS011;6464;42.494;27.470;2023-04-28T07:24:47;9.02;;;8.73;;
12800;SDS011;6464;42.494;27.470;2023-04-28T07:27:17;9.80;;;9.50;;
12800;SDS011;6464;42.494;27.470;2023-04-28T07:29:50;7.97;;;7.78;;
12800;SDS011;6464;42.494;27.470;2023-04-28T07:32:17;8.03;;;7.83;;
12800;SDS011;6464;42.494;27.470;2023-04-28T07:34:45;7.80;;;7.60;;
12800;SDS011;6464;42.494;27.470;2023-04-28T07:37:13;7.97;;;7.78;;
12800;SDS011;6464;42.494;27.470;2023-04-28T07:39:40;7.80;;;7.60;;
12800;SDS011;6464;42.494;27.470;2023-04-28T07:42:08;7.63;;;7.43;;
12800;SDS011;6464;42.494;27.470;2023-04-28T07:44:36;7.43;;;7.22;;
12800;SDS011;6464;42.494;27.470;2023-04-28T07:47:05;7.63;;;7.43;;
12800;SDS011;6464;42.494;27.470;2023-04-28T07:49:33;7.78;;;7.57;;
12800;SDS011;6464;42.494;27.470;2023-04-28T07:52:01;7.80;;;7.60;;
12800;SDS011;6464;42.494;27.470;2023-04-28T07:54:29;7.80;;;7.60;;
12800;SDS011;6464;42.494;27.470;2023-04-28T07:56:58;7.78;;;7.57;;
12800;SDS011;6464;42.494;27.470;2023-04-28T07:59:31;7.97;;;7.78;;
12800;SDS011;6464;42.494;27.470;2023-04-28T08:01:59;7.60;;;7.40;;
12800;SDS011;6464;42.494;27.470;2023-04-28T08:04:27;7.60;;;7.40;;
12800;SDS011;6464;42.494;27.470;2023-04-28T08:06:58;7.70;;;7.50;;
12800;SDS011;6464;42.494;27.470;2023-04-28T08:09:26;7.70;;;7.50;;
12800;SDS011;6464;42.494;27.470;2023-04-28T08:11:53;7.70;;;7.50;;
12800;SDS011;6464;42.494;27.470;2023-04-28T08:14:21;8.05;;;7.85;;
12800;SDS011;6464;42.494;27.470;2023-04-28T08:16:48;7.90;;;7.70;;
12800;SDS011;6464;42.494;27.470;2023-04-28T08:19:18;8.40;;;8.13;;
12800;SDS011;6464;42.494;27.470;2023-04-28T08:21:48;7.78;;;7.57;;
12800;SDS011;6464;42.494;27.470;2023-04-28T08:24:16;7.75;;;7.55;;
12800;SDS011;6464;42.494;27.470;2023-04-28T08:26:44;7.80;;;7.60;;
12800;SDS011;6464;42.494;27.470;2023-04-28T08:29:11;7.80;;;7.60;;
12800;SDS011;6464;42.494;27.470;2023-04-28T08:31:39;8.10;;;7.90;;
12800;SDS011;6464;42.494;27.470;2023-04-28T08:34:06;7.95;;;7.75;;
12800;SDS011;6464;42.494;27.470;2023-04-28T08:36:35;8.20;;;8.00;;
12800;SDS011;6464;42.494;27.470;2023-04-28T08:39:05;8.00;;;7.80;;
12800;SDS011;6464;42.494;27.470;2023-04-28T08:41:33;7.90;;;7.70;;
12800;SDS011;6464;42.494;27.470;2023-04-28T08:44:05;7.68;;;7.47;;
12800;SDS011;6464;42.494;27.470;2023-04-28T08:46:35;8.13;;;7.93;;
12800;SDS011;6464;42.494;27.470;2023-04-28T08:49:06;7.95;;;7.75;;
12800;SDS011;6464;42.494;27.470;2023-04-28T08:51:43;8.00;;;7.80;;
12800;SDS011;6464;42.494;27.470;2023-04-28T08:54:15;8.00;;;7.80;;
12800;SDS011;6464;42.494;27.470;2023-04-28T08:56:44;8.02;;;7.82;;
12800;SDS011;6464;42.494;27.470;2023-04-28T08:59:13;7.95;;;7.75;;
12800;SDS011;6464;42.494;27.470;2023-04-28T09:01:42;7.93;;;7.72;;
12800;SDS011;6464;42.494;27.470;2023-04-28T09:04:10;8.60;;;8.30;;
12800;SDS011;6464;42.494;27.470;2023-04-28T09:06:37;8.52;;;8.23;;
12800;SDS011;6464;42.494;27.470;2023-04-28T09:09:18;7.85;;;7.65;;
12800;SDS011;6464;42.494;27.470;2023-04-28T09:11:49;7.90;;;7.70;;
12800;SDS011;6464;42.494;27.470;2023-04-28T09:14:18;7.75;;;7.55;;
12800;SDS011;6464;42.494;27.470;2023-04-28T09:16:45;7.70;;;7.50;;
12800;SDS011;6464;42.494;27.470;2023-04-28T09:19:13;7.90;;;7.70;;
12800;SDS011;6464;42.494;27.470;2023-04-28T09:21:46;7.78;;;7.57;;
12800;SDS011;6464;42.494;27.470;2023-04-28T09:24:27;7.90;;;7.70;;
12800;SDS011;6464;42.494;27.470;2023-04-28T09:26:57;7.80;;;7.60;;
12800;SDS011;6464;42.494;27.470;2023-04-28T09:29:30;7.95;;;7.75;;
12800;SDS011;6464;42.494;27.470;2023-04-28T09:32:14;7.82;;;7.63;;
12800;SDS011;6464;42.494;27.470;2023-04-28T09:34:43;9.90;;;9.60;;
12800;SDS011;6464;42.494;27.470;2023-04-28T09:37:13;9.80;;;9.50;;
12800;SDS011;6464;42.494;27.470;2023-04-28T09:39:46;9.95;;;9.65;;
12800;SDS011;6464;42.494;27.470;2023-04-28T09:42:30;9.90;;;9.60;;
12800;SDS011;6464;42.494;27.470;2023-04-28T09:44:59;9.90;;;9.60;;
12800;SDS011;6464;42.494;27.470;2023-04-28T09:47:27;9.65;;;9.35;;
12800;SDS011;6464;42.494;27.470;2023-04-28T09:49:56;10.02;;;9.73;;
12800;SDS011;6464;42.494;27.470;2023-04-28T09:52:26;8.23;;;8.02;;
12800;SDS011;6464;42.494;27.470;2023-04-28T09:55:04;8.18;;;7.97;;
12800;SDS011;6464;42.494;27.470;2023-04-28T09:57:40;8.10;;;7.90;;
12800;SDS011;6464;42.494;27.470;2023-04-28T10:00:10;10.00;;;9.70;;
12800;SDS011;6464;42.494;27.470;2023-04-28T10:02:40;9.85;;;9.55;;
12800;SDS011;6464;42.494;27.470;2023-04-28T10:05:09;10.35;;;9.95;;
12800;SDS011;6464;42.494;27.470;2023-04-28T10:07:38;8.60;;;8.30;;
12800;SDS011;6464;42.494;27.470;2023-04-28T10:10:07;8.50;;;8.20;;
12800;SDS011;6464;42.494;27.470;2023-04-28T10:12:35;8.50;;;8.20;;
12800;SDS011;6464;42.494;27.470;2023-04-28T10:15:02;8.48;;;8.18;;
12800;SDS011;6464;42.494;27.470;2023-04-28T10:17:30;8.35;;;8.07;;
12800;SDS011;6464;42.494;27.470;2023-04-28T10:19:59;8.50;;;8.20;;
12800;SDS011;6464;42.494;27.470;2023-04-28T10:22:30;8.50;;;8.20;;
12800;SDS011;6464;42.494;27.470;2023-04-28T10:25:26;8.40;;;8.10;;
12800;SDS011;6464;42.494;27.470;2023-04-28T10:27:57;8.18;;;7.97;;
12800;SDS011;6464;42.494;27.470;2023-04-28T10:30:30;7.93;;;7.72;;
12800;SDS011;6464;42.494;27.470;2023-04-28T10:38:22;8.20;;;8.00;;
12800;SDS011;6464;42.494;27.470;2023-04-28T10:40:51;8.50;;;8.20;;
12800;SDS011;6464;42.494;27.470;2023-04-28T10:43:31;8.40;;;8.10;;
12800;SDS011;6464;42.494;27.470;2023-04-28T10:46:07;8.10;;;7.90;;
12800;SDS011;6464;42.494;27.470;2023-04-28T10:48:54;8.13;;;7.93;;
12800;SDS011;6464;42.494;27.470;2023-04-28T10:51:26;8.20;;;8.00;;
12800;SDS011;6464;42.494;27.470;2023-04-28T10:54:13;8.30;;;8.05;;
12800;SDS011;6464;42.494;27.470;2023-04-28T10:57:20;8.88;;;8.57;;
12800;SDS011;6464;42.494;27.470;2023-04-28T10:59:47;9.20;;;8.90;;
12800;SDS011;6464;42.494;27.470;2023-04-28T11:02:37;9.30;;;9.00;;
12800;SDS011;6464;42.494;27.470;2023-04-28T11:05:17;8.38;;;8.07;;
12800;SDS011;6464;42.494;27.470;2023-04-28T11:11:12;8.10;;;7.90;;
12800;SDS011;6464;42.494;27.470;2023-04-28T11:13:55;8.35;;;8.05;;
12800;SDS011;6464;42.494;27.470;2023-04-28T11:16:58;9.45;;;9.15;;
12800;SDS011;6464;42.494;27.470;2023-04-28T11:19:28;8.88;;;8.57;;
12800;SDS011;6464;42.494;27.470;2023-04-28T11:21:57;9.40;;;9.10;;
12800;SDS011;6464;42.494;27.470;2023-04-28T11:24:27;9.57;;;9.27;;
12800;SDS011;6464;42.494;27.470;2023-04-28T11:26:55;8.80;;;8.50;;
12800;SDS011;6464;42.494;27.470;2023-04-28T11:29:31;8.75;;;8.45;;
12800;SDS011;6464;42.494;27.470;2023-04-28T11:31:59;8.60;;;8.30;;
12800;SDS011;6464;42.494;27.470;2023-04-28T11:34:26;8.20;;;8.00;;
12800;SDS011;6464;42.494;27.470;2023-04-28T11:36:53;8.60;;;8.30;;
12800;SDS011;6464;42.494;27.470;2023-04-28T11:39:24;8.80;;;8.50;;
12800;SDS011;6464;42.494;27.470;2023-04-28T11:41:54;8.60;;;8.30;;
12800;SDS011;6464;42.494;27.470;2023-04-28T11:44:23;8.60;;;8.30;;
12800;SDS011;6464;42.494;27.470;2023-04-28T11:46:53;8.18;;;7.97;;
12800;SDS011;6464;42.494;27.470;2023-04-28T11:49:24;8.50;;;8.20;;
12800;SDS011;6464;42.494;27.470;2023-04-28T11:51:53;8.70;;;8.40;;
12800;SDS011;6464;42.494;27.470;2023-04-28T11:54:21;8.80;;;8.50;;
12800;SDS011;6464;42.494;27.470;2023-04-28T11:56:49;8.50;;;8.20;;
12800;SDS011;6464;42.494;27.470;2023-04-28T11:59:16;9.93;;;9.63;;
12800;SDS011;6464;42.494;27.470;2023-04-28T12:01:45;10.10;;;9.70;;
12800;SDS011;6464;42.494;27.470;2023-04-28T12:04:30;8.65;;;8.35;;
12800;SDS011;6464;42.494;27.470;2023-04-28T12:07:03;9.90;;;9.60;;
12800;SDS011;6464;42.494;27.470;2023-04-28T12:09:34;9.95;;;9.65;;
12800;SDS011;6464;42.494;27.470;2023-04-28T12:12:05;10.40;;;10.00;;
12800;SDS011;6464;42.494;27.470;2023-04-28T12:17:23;10.40;;;10.00;;
12800;SDS011;6464;42.494;27.470;2023-04-28T12:19:53;10.38;;;9.98;;
12800;SDS011;6464;42.494;27.470;2023-04-28T12:22:20;8.88;;;8.57;;
12800;SDS011;6464;42.494;27.470;2023-04-28T12:25:01;9.00;;;8.70;;
12800;SDS011;6464;42.494;27.470;2023-04-28T12:27:29;10.60;;;10.20;;
12800;SDS011;6464;42.494;27.470;2023-04-28T12:29:56;10.30;;;9.90;;
12800;SDS011;6464;42.494;27.470;2023-04-28T12:32:36;10.05;;;9.70;;
12800;SDS011;6464;42.494;27.470;2023-04-28T12:35:07;10.18;;;9.77;;
12800;SDS011;6464;42.494;27.470;2023-04-28T12:37:37;10.20;;;9.80;;
12800;SDS011;6464;42.494;27.470;2023-04-28T12:40:06;10.30;;;9.90;;
12800;SDS011;6464;42.494;27.470;2023-04-28T12:42:36;10.30;;;9.90;;
12800;SDS011;6464;42.494;27.470;2023-04-28T12:45:10;10.40;;;10.00;;
12800;SDS011;6464;42.494;27.470;2023-04-28T12:47:54;10.27;;;9.88;;
12800;SDS011;6464;42.494;27.470;2023-04-28T12:50:30;10.43;;;10.02;;
12800;SDS011;6464;42.494;27.470;2023-04-28T12:52:58;10.23;;;9.90;;
12800;SDS011;6464;42.494;27.470;2023-04-28T12:55:27;10.50;;;10.10;;
12800;SDS011;6464;42.494;27.470;2023-04-28T12:58:08;10.38;;;9.98;;
12800;SDS011;6464;42.494;27.470;2023-04-28T13:01:04;9.73;;;9.43;;
12800;SDS011;6464;42.494;27.470;2023-04-28T13:03:33;10.00;;;9.70;;
12800;SDS011;6464;42.494;27.470;2023-04-28T13:08:52;9.80;;;9.50;;
12800;SDS011;6464;42.494;27.470;2023-04-28T13:11:20;8.77;;;8.48;;
12800;SDS011;6464;42.494;27.470;2023-04-28T13:13:52;8.70;;;8.40;;
12800;SDS011;6464;42.494;27.470;2023-04-28T13:16:22;8.80;;;8.50;;
12800;SDS011;6464;42.494;27.470;2023-04-28T13:18:55;8.60;;;8.30;;
12800;SDS011;6464;42.494;27.470;2023-04-28T13:21:37;9.10;;;8.80;;
12800;SDS011;6464;42.494;27.470;2023-04-28T13:24:09;8.60;;;8.30;;
12800;SDS011;6464;42.494;27.470;2023-04-28T13:26:55;8.45;;;8.15;;
12800;SDS011;6464;42.494;27.470;2023-04-28T13:29:26;8.50;;;8.20;;
12800;SDS011;6464;42.494;27.470;2023-04-28T13:32:04;8.50;;;8.20;;
12800;SDS011;6464;42.494;27.470;2023-04-28T13:34:35;8.70;;;8.40;;
12800;SDS011;6464;42.494;27.470;2023-04-28T13:37:31;8.50;;;8.20;;
12800;SDS011;6464;42.494;27.470;2023-04-28T13:40:28;8.77;;;8.48;;
12800;SDS011;6464;42.494;27.470;2023-04-28T13:42:59;8.90;;;8.60;;
12800;SDS011;6464;42.494;27.470;2023-04-28T13:45:28;8.65;;;8.35;;
12800;SDS011;6464;42.494;27.470;2023-04-28T13:47:57;8.65;;;8.35;;
12800;SDS011;6464;42.494;27.470;2023-04-28T13:50:30;8.90;;;8.60;;
12800;SDS011;6464;42.494;27.470;2023-04-28T13:55:50;8.77;;;8.48;;
12800;SDS011;6464;42.494;27.470;2023-04-28T13:58:21;8.70;;;8.40;;
12800;SDS011;6464;42.494;27.470;2023-04-28T14:00:57;8.60;;;8.30;;
12800;SDS011;6464;42.494;27.470;2023-04-28T14:03:25;8.40;;;8.20;;
12800;SDS011;6464;42.494;27.470;2023-04-28T14:05:53;8.77;;;8.48;;
12800;SDS011;6464;42.494;27.470;2023-04-28T14:08:28;8.80;;;8.50;;
12800;SDS011;6464;42.494;27.470;2023-04-28T14:10:56;8.70;;;8.40;;
12800;SDS011;6464;42.494;27.470;2023-04-28T14:13:27;8.90;;;8.60;;
12800;SDS011;6464;42.494;27.470;2023-04-28T14:15:56;8.70;;;8.40;;
12800;SDS011;6464;42.494;27.470;2023-04-28T14:18:36;8.70;;;8.40;;
12800;SDS011;6464;42.494;27.470;2023-04-28T14:21:03;10.20;;;9.80;;
12800;SDS011;6464;42.494;27.470;2023-04-28T14:23:33;9.95;;;9.65;;
12800;SDS011;6464;42.494;27.470;2023-04-28T14:26:00;9.68;;;9.38;;
12800;SDS011;6464;42.494;27.470;2023-04-28T14:28:27;8.70;;;8.40;;
12800;SDS011;6464;42.494;27.470;2023-04-28T14:31:14;8.50;;;8.20;;
12800;SDS011;6464;42.494;27.470;2023-04-28T14:33:44;8.40;;;8.10;;
12800;SDS011;6464;42.494;27.470;2023-04-28T14:36:13;8.40;;;8.10;;
12800;SDS011;6464;42.494;27.470;2023-04-28T14:38:46;7.97;;;7.78;;
12800;SDS011;6464;42.494;27.470;2023-04-28T14:41:14;7.78;;;7.57;;
12800;SDS011;6464;42.494;27.470;2023-04-28T14:43:45;8.00;;;7.80;;
12800;SDS011;6464;42.494;27.470;2023-04-28T14:46:26;8.10;;;7.90;;
12800;SDS011;6464;42.494;27.470;2023-04-28T14:48:55;8.20;;;8.00;;
12800;SDS011;6464;42.494;27.470;2023-04-28T14:51:24;8.07;;;7.88;;
12800;SDS011;6464;42.494;27.470;2023-04-28T14:53:55;8.10;;;7.90;;
12800;SDS011;6464;42.494;27.470;2023-04-28T14:56:23;7.90;;;7.70;;
12800;SDS011;6464;42.494;27.470;2023-04-28T14:58:50;7.80;;;7.60;;
12800;SDS011;6464;42.494;27.470;2023-04-28T15:01:31;8.00;;;7.80;;
12800;SDS011;6464;42.494;27.470;2023-04-28T15:04:04;7.95;;;7.75;;
12800;SDS011;6464;42.494;27.470;2023-04-28T15:06:42;8.15;;;7.95;;
12800;SDS011;6464;42.494;27.470;2023-04-28T15:09:15;7.68;;;7.47;;
12800;SDS011;6464;42.494;27.470;2023-04-28T15:11:45;8.00;;;7.80;;
12800;SDS011;6464;42.494;27.470;2023-04-28T15:14:23;7.80;;;7.60;;
12800;SDS011;6464;42.494;27.470;2023-04-28T15:16:54;7.80;;;7.60;;
12800;SDS011;6464;42.494;27.470;2023-04-28T15:19:22;8.07;;;7.88;;
12800;SDS011;6464;42.494;27.470;2023-04-28T15:21:52;7.50;;;7.30;;
12800;SDS011;6464;42.494;27.470;2023-04-28T15:24:23;7.57;;;7.38;;
12800;SDS011;6464;42.494;27.470;2023-04-28T15:26:53;9.38;;;9.07;;
12800;SDS011;6464;42.494;27.470;2023-04-28T15:29:28;8.88;;;8.57;;
12800;SDS011;6464;42.494;27.470;2023-04-28T15:31:55;9.13;;;8.82;;
12800;SDS011;6464;42.494;27.470;2023-04-28T15:34:22;8.43;;;8.13;;
12800;SDS011;6464;42.494;27.470;2023-04-28T15:36:51;7.90;;;7.70;;
12800;SDS011;6464;42.494;27.470;2023-04-28T15:39:19;8.00;;;7.80;;
12800;SDS011;6464;42.494;27.470;2023-04-28T15:41:49;7.93;;;7.72;;
12800;SDS011;6464;42.494;27.470;2023-04-28T15:44:16;7.90;;;7.70;;
12800;SDS011;6464;42.494;27.470;2023-04-28T15:46:44;7.82;;;7.63;;
12800;SDS011;6464;42.494;27.470;2023-04-28T15:49:11;7.70;;;7.50;;
12800;SDS011;6464;42.494;27.470;2023-04-28T15:51:39;7.78;;;7.57;;
12800;SDS011;6464;42.494;27.470;2023-04-28T15:54:08;7.70;;;7.50;;
12800;SDS011;6464;42.494;27.470;2023-04-28T15:56:35;7.80;;;7.60;;
12800;SDS011;6464;42.494;27.470;2023-04-28T15:59:05;7.72;;;7.53;;
12800;SDS011;6464;42.494;27.470;2023-04-28T16:01:34;7.93;;;7.72;;
12800;SDS011;6464;42.494;27.470;2023-04-28T16:04:01;8.05;;;7.85;;
12800;SDS011;6464;42.494;27.470;2023-04-28T16:06:29;8.38;;;8.07;;
12800;SDS011;6464;42.494;27.470;2023-04-28T16:11:30;8.23;;;7.97;;
12800;SDS011;6464;42.494;27.470;2023-04-28T16:13:59;8.13;;;7.90;;
12800;SDS011;6464;42.494;27.470;2023-04-28T16:16:40;7.88;;;7.68;;
12800;SDS011;6464;42.494;27.470;2023-04-28T16:19:09;7.85;;;7.65;;
12800;SDS011;6464;42.494;27.470;2023-04-28T16:24:16;7.55;;;7.35;;
12800;SDS011;6464;42.494;27.470;2023-04-28T16:26:47;7.60;;;7.40;;
12800;SDS011;6464;42.494;27.470;2023-04-28T16:29:21;7.60;;;7.40;;
12800;SDS011;6464;42.494;27.470;2023-04-28T16:31:55;7.47;;;7.28;;
12800;SDS011;6464;42.494;27.470;2023-04-28T16:34:31;7.80;;;7.60;;
12800;SDS011;6464;42.494;27.470;2023-04-28T16:39:36;7.55;;;7.35;;
12800;SDS011;6464;42.494;27.470;2023-04-28T16:42:12;7.27;;;7.07;;
12800;SDS011;6464;42.494;27.470;2023-04-28T16:44:41;7.53;;;7.32;;
12800;SDS011;6464;42.494;27.470;2023-04-28T16:47:17;7.47;;;7.28;;
12800;SDS011;6464;42.494;27.470;2023-04-28T16:49:51;7.60;;;7.40;;
12800;SDS011;6464;42.494;27.470;2023-04-28T16:52:36;7.20;;;7.00;;
12800;SDS011;6464;42.494;27.470;2023-04-28T16:55:12;7.27;;;7.07;;
12800;SDS011;6464;42.494;27.470;2023-04-28T16:57:43;7.20;;;7.00;;
12800;SDS011;6464;42.494;27.470;2023-04-28T17:00:32;7.00;;;6.80;;
12800;SDS011;6464;42.494;27.470;2023-04-28T17:03:12;7.43;;;7.23;;
12800;SDS011;6464;42.494;27.470;2023-04-28T17:05:44;7.30;;;7.10;;
12800;SDS011;6464;42.494;27.470;2023-04-28T17:08:13;8.30;;;8.10;;
12800;SDS011;6464;42.494;27.470;2023-04-28T17:11:02;7.60;;;7.40;;
12800;SDS011;6464;42.494;27.470;2023-04-28T17:13:34;7.40;;;7.20;;
12800;SDS011;6464;42.494;27.470;2023-04-28T17:16:02;7.47;;;7.27;;
12800;SDS011;6464;42.494;27.470;2023-04-28T17:21:22;7.70;;;7.50;;
12800;SDS011;6464;42.494;27.470;2023-04-28T17:23:59;7.80;;;7.60;;
12800;SDS011;6464;42.494;27.470;2023-04-28T17:26:29;7.60;;;7.40;;
12800;SDS011;6464;42.494;27.470;2023-04-28T17:29:00;7.70;;;7.50;;
12800;SDS011;6464;42.494;27.470;2023-04-28T17:31:29;7.53;;;7.33;;
12800;SDS011;6464;42.494;27.470;2023-04-28T17:34:06;7.70;;;7.50;;
12800;SDS011;6464;42.494;27.470;2023-04-28T17:36:38;8.03;;;7.83;;
12800;SDS011;6464;42.494;27.470;2023-04-28T17:39:07;7.87;;;7.67;;
12800;SDS011;6464;42.494;27.470;2023-04-28T17:41:35;7.73;;;7.53;;
12800;SDS011;6464;42.494;27.470;2023-04-28T17:44:03;7.57;;;7.37;;
12800;SDS011;6464;42.494;27.470;2023-04-28T17:46:32;7.40;;;7.20;;
12800;SDS011;6464;42.494;27.470;2023-04-28T17:49:00;7.50;;;7.30;;
12800;SDS011;6464;42.494;27.470;2023-04-28T17:51:32;7.50;;;7.30;;
12800;SDS011;6464;42.494;27.470;2023-04-28T17:54:02;7.80;;;7.60;;
12800;SDS011;6464;42.494;27.470;2023-04-28T17:56:35;7.80;;;7.60;;
12800;SDS011;6464;42.494;27.470;2023-04-28T17:59:08;8.00;;;7.80;;
12800;SDS011;6464;42.494;27.470;2023-04-28T18:01:50;8.07;;;7.87;;
12800;SDS011;6464;42.494;27.470;2023-04-28T18:04:26;8.17;;;7.97;;
12800;SDS011;6464;42.494;27.470;2023-04-28T18:07:00;7.77;;;7.57;;
12800;SDS011;6464;42.494;27.470;2023-04-28T18:09:34;7.87;;;7.67;;
12800;SDS011;6464;42.494;27.470;2023-04-28T18:12:07;8.10;;;7.90;;
12800;SDS011;6464;42.494;27.470;2023-04-28T18:14:36;7.60;;;7.40;;
12800;SDS011;6464;42.494;27.470;2023-04-28T18:17:05;7.90;;;7.70;;
12800;SDS011;6464;42.494;27.470;2023-04-28T18:19:37;8.33;;;8.07;;
12800;SDS011;6464;42.494;27.470;2023-04-28T18:22:12;8.20;;;8.00;;
12800;SDS011;6464;42.494;27.470;2023-04-28T18:25:13;7.80;;;7.60;;
12800;SDS011;6464;42.494;27.470;2023-04-28T18:27:41;7.60;;;7.40;;
12800;SDS011;6464;42.494;27.470;2023-04-28T18:30:10;7.67;;;7.47;;
12800;SDS011;6464;42.494;27.470;2023-04-28T18:32:37;7.63;;;7.43;;
12800;SDS011;6464;42.494;27.470;2023-04-28T18:35:04;7.90;;;7.70;;